Latest Weather Observations for Ferny Creek

IDV60801

Issued at 3:52 pm EDT Saturday 17 November 2018 (issued every 10 minutes, with the page automatically refreshed every 10 minutes)

About weather observations | Map of weather stations | Latest weather observations for VIC | Other Formats
Station Details ID: 086266 Name: FERNY CREEK Lat: -37.87 Lon: 145.35 Height: 512.9 m
Data from the previous 72 hours. | See also: Recent months at Ferny Creek
Date/Time
EDT
Temp
°C
App
Temp
°C
Dew
Point
°C
Rel
Hum
%
Delta-T
°C
Wind Press
QNH
hPa
Press
MSL
hPa
Rain since
9am
mm
Dir  Spd
km/h
Gust
km/h
Spd
kts
Gust
kts
17/03:30pm 15.7 13.0 7.2 57 4.3 SE 11 24 6 13 1023.2 1022.5 0.0
17/03:00pm 16.0 13.2 7.0 55 4.5 SE 11 20 6 11 1023.3 1022.7 0.0
17/02:30pm 15.7 12.4 4.7 48 5.3 SE 11 20 6 11 1023.5 1022.9 0.0
17/02:00pm 15.9 12.8 5.5 50 5.1 ESE 11 20 6 11 1023.7 1023.1 0.0
17/01:30pm 15.8 13.2 6.0 52 4.9 SSE 9 22 5 12 1023.8 1023.2 0.0
17/01:00pm 15.2 12.2 6.2 55 4.4 SE 11 19 6 10 1023.9 1023.3 0.0
17/12:30pm 14.5 11.7 5.0 53 4.6 SSE 9 22 5 12 1024.1 1023.5 0.0
17/12:00pm 14.0 11.6 5.1 55 4.3 SE 7 17 4 9 1024.2 1023.6 0.0
17/11:30am 14.0 11.6 5.4 56 4.2 SE 7 20 4 11 1024.2 1023.6 0.0
17/11:00am 14.2 11.9 5.6 56 4.2 SE 7 17 4 9 1024.3 1023.7 0.0
17/10:30am 12.4 9.6 3.1 53 4.2 ESE 7 15 4 8 1024.2 1023.6 0.0
17/10:00am 12.1 9.1 4.1 58 3.7 ESE 9 19 5 10 1024.1 1023.5 0.0
17/09:30am 11.3 7.2 4.3 62 3.2 ESE 15 26 8 14 1024.0 1023.4 0.0
17/09:00am 10.8 7.8 5.8 71 2.4 ESE 11 24 6 13 1024.0 1023.4 0.0
17/08:30am 9.9 7.3 5.9 76 1.9 SE 9 22 5 12 1023.8 1023.2 0.0
17/08:00am 9.9 7.3 5.9 76 1.9 SE 9 17 5 9 1023.6 1023.0 0.0
17/07:30am 9.1 6.4 5.8 80 1.6 ESE 9 24 5 13 1023.5 1022.9 0.0
17/07:00am 8.0 5.7 5.6 85 1.1 ESE 7 13 4 7 1023.1 1022.4 0.0
17/06:30am 7.5 5.4 5.8 89 0.8 SE 6 15 3 8 1022.7 1022.1 0.0
17/06:00am 7.0 4.7 5.5 90 0.7 ESE 7 13 4 7 1022.4 1021.8 0.0
17/05:30am 6.7 4.4 5.5 92 0.5 ESE 7 13 4 7 1022.1 1021.5 0.0
17/05:00am 6.7 4.5 5.3 91 0.6 ESE 6 11 3 6 1022.0 1021.4 0.0
17/04:30am 6.9 4.7 5.5 91 0.6 ESE 6 13 3 7 1021.9 1021.3 0.0
17/04:00am 6.9 4.7 5.2 89 0.8 ESE 6 11 3 6 1021.9 1021.3 0.0
17/03:30am 7.0 4.8 5.2 88 0.8 ESE 6 9 3 5 1021.8 1021.2 0.0
17/03:00am 6.7 4.4 4.7 87 0.9 ESE 6 11 3 6 1022.0 1021.4 0.0
17/02:30am 6.5 4.1 4.5 87 0.9 E 6 13 3 7 1022.1 1021.5 0.0
17/02:00am 6.4 4.0 4.2 86 1.0 ESE 6 11 3 6 1022.2 1021.6 0.0
17/01:30am 6.7 4.3 4.2 84 1.1 ESE 6 11 3 6 1022.4 1021.8 0.0
17/01:00am 6.7 4.1 4.0 83 1.2 ESE 7 13 4 7 1022.5 1021.9 0.0
17/12:30am 6.7 4.2 4.5 86 1.0 E 7 11 4 6 1022.6 1022.0 0.0
17/12:00am 7.1 4.6 4.6 84 1.1 ESE 7 13 4 7 1022.7 1022.1 0.0
 
Date/Time
EDT
Temp
°C
App
Temp
°C
Dew
Point
°C
Rel
Hum
%
Delta-T
°C
Wind Press
QNH
hPa
Press
MSL
hPa
Rain since
9am
mm
Dir  Spd
km/h
Gust
km/h
Spd
kts
Gust
kts
16/11:30pm 7.4 4.9 4.9 84 1.1 ESE 7 15 4 8 1022.7 1022.1 0.0
16/11:00pm 7.3 4.8 5.0 85 1.0 ESE 7 11 4 6 1022.8 1022.2 0.0
16/10:30pm 7.5 5.1 5.1 85 1.1 ESE 7 13 4 7 1022.8 1022.2 0.0
16/10:00pm 7.7 5.2 5.0 83 1.2 ESE 7 15 4 8 1022.6 1022.0 0.0
16/09:30pm 8.1 5.8 5.0 81 1.4 ESE 6 13 3 7 1022.2 1021.6 0.0
16/09:00pm 8.7 6.4 5.6 81 1.4 ESE 7 15 4 8 1021.9 1021.3 0.0
16/08:30pm 9.6 7.0 6.3 80 1.6 ESE 9 17 5 9 1021.6 1021.0 0.0
16/08:00pm 10.0 8.0 6.2 77 1.8 ESE 6 15 3 8 1021.4 1020.7 0.0
16/07:30pm 10.9 8.7 6.3 73 2.2 SE 7 17 4 9 1021.0 1020.3 0.0
16/07:00pm 11.6 9.7 6.5 71 2.5 SE 6 11 3 6 1020.7 1020.1 0.0
16/06:30pm 12.4 10.3 6.5 67 2.9 ESE 7 13 4 7 1020.4 1019.8 0.0
16/06:00pm 13.2 11.1 5.9 61 3.5 SSE 6 19 3 10 1020.3 1019.7 0.0
16/05:30pm 14.7 12.7 6.3 57 4.2 SE 6 17 3 9 1020.3 1019.7 0.0
16/05:00pm 15.1 13.2 7.6 61 3.8 ESE 7 11 4 6 1020.1 1019.5 0.0
16/04:30pm 15.6 14.0 7.9 60 4.0 SSE 6 15 3 8 1020.1 1019.5 0.0
16/04:00pm 15.6 13.5 8.4 62 3.7 SE 9 15 5 8 1020.1 1019.5 0.0
16/03:30pm 15.8 13.8 7.1 56 4.4 SSW 7 20 4 11 1020.2 1019.6 0.0
16/03:00pm 15.4 13.0 5.3 51 4.9 W 7 13 4 7 1020.2 1019.6 0.0
16/02:30pm 15.3 13.0 5.8 53 4.7 SW 7 17 4 9 1020.6 1020.0 0.0
16/02:00pm 15.8 14.1 7.6 58 4.2 SW 6 13 3 7 1020.5 1019.9 0.0
16/01:30pm 16.0 13.9 6.7 54 4.7 WSW 7 19 4 10 1020.4 1019.8 0.0
16/01:00pm 15.9 14.2 7.4 57 4.3 WSW 6 13 3 7 1020.6 1020.0 0.0
16/12:30pm 15.3 13.5 8.1 62 3.7 NW 7 17 4 9 1020.5 1019.9 0.0
16/12:00pm 15.4 13.7 8.2 62 3.7 NNW 7 17 4 9 1020.8 1020.2 0.0
16/11:30am 13.5 11.7 7.3 66 3.1 NW 6 17 3 9 1020.8 1020.2 0.0
16/11:00am 14.2 12.7 8.6 69 2.9 NW 6 17 3 9 1021.1 1020.4 0.0
16/10:30am 13.1 11.2 6.9 66 3.1 NW 6 11 3 6 1020.7 1020.1 0.0
16/10:00am 11.6 9.3 5.0 64 3.1 NW 6 13 3 7 1021.0 1020.3 0.0
16/09:30am 11.5 9.3 5.4 66 2.9 WNW 6 9 3 5 1021.2 1020.5 0.0
16/09:00am 10.0 7.7 5.6 74 2.1 NW 7 15 4 8 1021.0 1020.3 0.0
16/08:30am 9.1 6.8 5.7 79 1.6 NW 7 13 4 7 1020.8 1020.2 0.0
16/08:00am 8.6 6.5 5.9 83 1.3 NW 6 11 3 6 1020.7 1020.1 0.0
16/07:30am 7.4 5.6 5.5 88 0.9 WNW 4 9 2 5 1020.5 1019.9 0.0
16/07:00am 6.7 4.6 6.0 95 0.3 NW 6 9 3 5 1020.6 1020.0 0.0
16/06:30am 5.3 3.4 5.0 98 0.1 WNW 4 7 2 4 1020.3 1019.7 0.0
16/06:00am 4.7 2.6 4.1 96 0.3 NW 4 6 2 3 1019.7 1019.0 0.0
16/05:30am 4.8 2.4 4.1 95 0.3 WNW 6 6 3 3 1019.6 1018.9 0.0
16/05:00am 5.3 2.7 4.1 92 0.5 WNW 7 11 4 6 1019.3 1018.6 0.0
16/04:30am 5.7 4.0 4.0 89 0.7 NNE 2 4 1 2 1019.4 1018.7 0.0
16/04:00am 6.0 3.6 4.3 89 0.7 E 6 7 3 4 1019.5 1018.8 0.0
16/03:30am 6.3 3.1 4.9 91 0.6 E 11 17 6 9 1019.7 1019.0 0.0
16/03:00am 6.6 1.8 4.6 87 0.9 E 19 26 10 14 1019.9 1019.3 0.0
16/02:30am 7.1 2.1 4.4 83 1.2 E 20 30 11 16 1020.5 1019.9 0.0
16/02:00am 7.3 2.9 4.6 83 1.2 E 17 30 9 16 1021.7 1021.1 0.0
16/01:30am 7.5 3.2 5.1 85 1.1 E 17 24 9 13 1022.2 1021.6 0.0
16/01:00am 7.4 3.8 5.2 86 1.0 ESE 13 20 7 11 1022.8 1022.2 0.0
16/12:30am 7.3 4.1 5.1 86 1.0 ESE 11 19 6 10 1023.5 1022.9 0.0
16/12:00am 7.1 4.6 4.6 84 1.1 ESE 7 15 4 8 1023.7 1023.1 0.0
 
Date/Time
EDT
Temp
°C
App
Temp
°C
Dew
Point
°C
Rel
Hum
%
Delta-T
°C
Wind Press
QNH
hPa
Press
MSL
hPa
Rain since
9am
mm
Dir  Spd
km/h
Gust
km/h
Spd
kts
Gust
kts
15/11:30pm 7.5 4.2 4.8 83 1.2 SE 11 19 6 10 1023.9 1023.3 0.0
15/11:00pm 7.6 4.7 4.4 80 1.4 ESE 9 22 5 12 1024.2 1023.6 0.0
15/10:30pm 7.6 4.3 4.4 80 1.4 SE 11 24 6 13 1024.3 1023.7 0.0
15/10:00pm 7.6 5.1 4.9 83 1.2 SE 7 17 4 9 1024.4 1023.8 0.0
15/09:30pm 7.8 5.3 4.6 80 1.4 SE 7 13 4 7 1024.2 1023.6 0.0
15/09:00pm 7.8 5.8 4.4 79 1.5 SSE 4 13 2 7 1023.9 1023.3 0.0
15/08:30pm 8.5 6.0 4.5 76 1.8 SE 7 13 4 7 1023.4 1022.8 0.0
15/08:00pm 8.9 6.5 4.5 74 2.0 SE 6 15 3 8 1023.3 1022.7 0.0
15/07:30pm 9.6 7.1 4.6 71 2.3 SE 7 13 4 7 1023.3 1022.7 0.0
15/07:00pm 10.0 7.5 5.0 71 2.3 SSE 7 20 4 11 1023.1 1022.4 0.0
15/06:30pm 10.7 8.5 5.5 70 2.5 SE 6 11 3 6 1023.2 1022.5 0.0
15/06:00pm 11.4 9.2 5.5 67 2.8 ESE 6 19 3 10 1023.2 1022.5 0.0
15/05:30pm 12.0 9.8 5.4 64 3.1 SE 6 13 3 7 1023.3 1022.7 0.0
15/05:00pm 11.9 9.5 5.1 63 3.2 SE 7 17 4 9 1023.3 1022.7 0.0
15/04:30pm 12.1 9.6 5.0 62 3.4 ESE 7 17 4 9 1023.4 1022.8 0.0
15/04:00pm 12.3 9.8 4.8 60 3.5 SE 7 17 4 9 1023.2 1022.5 0.0
15/03:30pm 12.4 9.6 5.1 61 3.5 SE 9 17 5 9 1023.2 1022.5 0.0
15/03:00pm 13.1 10.1 4.0 54 4.2 SSE 9 22 5 12 1023.4 1022.8 0.0
15/02:30pm 13.4 10.6 5.3 58 3.9 SE 9 20 5 11 1023.6 1023.0 0.0
15/02:00pm 11.8 8.4 4.1 59 3.5 SE 11 22 6 12 1023.3 1022.7 0.0
15/01:30pm 12.9 10.1 5.1 59 3.7 SE 9 20 5 11 1023.7 1023.1 0.0
15/01:00pm 12.4 10.1 5.8 64 3.2 SE 7 17 4 9 1023.8 1023.2 0.0
15/12:30pm 12.1 8.8 4.6 60 3.5 SE 11 20 6 11 1023.9 1023.3 0.0
15/12:00pm 13.6 10.3 6.2 61 3.6 ESE 13 30 7 16 1023.7 1023.1 0.0
15/11:30am 12.9 10.1 5.1 59 3.7 ESE 9 19 5 10 1023.8 1023.2 0.0
15/11:00am 11.6 9.1 4.6 62 3.3 SE 7 15 4 8 1023.8 1023.2 0.0
15/10:30am 11.1 9.0 5.6 69 2.6 SSE 6 11 3 6 1023.8 1023.2 0.0
15/10:00am 11.2 8.6 6.3 72 2.4 ESE 9 19 5 10 1023.6 1023.0 0.0
15/09:30am 11.6 9.7 6.7 72 2.4 SSW 6 15 3 8 1023.3 1022.7 0.0
15/09:00am 10.3 8.1 6.1 75 2.0 SE 7 15 4 8 1023.1 1022.4 1.0
15/08:30am 9.7 7.5 6.1 78 1.7 ESE 7 15 4 8 1022.7 1022.1 1.0
15/08:00am 9.4 6.9 6.7 83 1.3 E 9 17 5 9 1022.4 1021.8 1.0
15/07:30am 9.1 7.2 7.5 90 0.8 ESE 7 15 4 8 1022.0 1021.4 1.0
15/07:00am 8.5 6.8 7.4 93 0.5 E 6 7 3 4 1021.6 1021.0 1.0
15/06:30am 8.4 6.7 7.5 94 0.4 SE 6 9 3 5 1021.3 1020.6 1.0
15/06:00am 8.4 7.1 7.6 95 0.4 E 4 9 2 5 1021.1 1020.4 1.0
15/05:30am 8.6 7.0 7.8 95 0.4 ESE 6 9 3 5 1021.0 1020.3 1.0
15/05:00am 8.7 7.9 8.1 96 0.3 SE 2 6 1 3 1020.6 1020.0 1.0
15/04:30am 8.8 8.1 8.4 97 0.2 SSW 2 6 1 3 1020.3 1019.7 1.0
15/04:00am 8.8 7.7 8.5 98 0.1 ENE 4 7 2 4 1020.1 1019.5 1.0
15/03:30am 8.8 7.8 8.7 99 0.1 ESE 4 9 2 5 1019.9 1019.3 1.0
15/03:00am 8.9 7.9 8.9 100 0.0 SW 4 9 2 5 1019.8 1019.1 1.0
15/02:30am 9.2 8.3 9.2 100 0.0 WSW 4 9 2 5 1019.6 1018.9 1.0
15/02:00am 9.5 8.7 9.5 100 0.0 SSW 4 11 2 6 1019.6 1018.9 1.0
15/01:30am 9.6 8.4 9.6 100 0.0 SSW 6 9 3 5 1019.6 1018.9 1.0
15/01:00am 9.6 8.8 9.6 100 0.0 SSE 4 9 2 5 1019.5 1018.8 1.0
15/12:30am 9.3 8.8 9.3 100 0.0 SE 2 6 1 3 1019.5 1018.8 1.0
15/12:00am 9.0 8.8 9.0 100 0.0 CALM 0 2 0 1 1019.5 1018.8 1.0
 
Date/Time
EDT
Temp
°C
App
Temp
°C
Dew
Point
°C
Rel
Hum
%
Delta-T
°C
Wind Press
QNH
hPa
Press
MSL
hPa
Rain since
9am
mm
Dir  Spd
km/h
Gust
km/h
Spd
kts
Gust
kts
14/11:30pm 9.2 9.0 9.2 100 0.0 CALM 0 0 0 0 1019.5 1018.8 1.0
14/11:00pm 9.8 9.4 9.8 100 0.0 SE 2 6 1 3 1019.5 1018.8 1.0
14/10:30pm 10.4 9.4 10.4 100 0.0 SE 6 11 3 6 1019.4 1018.7 1.0
14/10:00pm 10.5 9.9 10.5 100 0.0 SE 4 7 2 4 1019.4 1018.7 1.0
14/09:30pm 10.6 9.7 10.6 100 0.0 ESE 6 11 3 6 1019.0 1018.3 1.0
14/09:00pm 10.5 9.6 10.5 100 0.0 SE 6 11 3 6 1018.7 1018.1 1.0
14/08:30pm 10.7 9.8 10.7 100 0.0 ESE 6 11 3 6 1018.2 1017.6 1.0
14/08:00pm 11.0 10.2 11.0 100 0.0 E 6 9 3 5 1017.8 1017.1 1.0
14/07:30pm 11.6 11.7 11.6 100 0.0 E 2 6 1 3 1017.4 1016.7 1.0
14/07:00pm 11.3 11.3 11.3 100 0.0 SE 2 7 1 4 1017.2 1016.5 1.0
14/06:30pm 11.4 10.7 11.4 100 0.0 SW 6 11 3 6 1016.6 1016.0 1.0
14/06:00pm 11.6 11.0 11.6 100 0.0 SSW 6 13 3 7 1016.3 1015.6 1.0
14/05:30pm 11.7 11.1 11.7 100 0.0 SSW 6 11 3 6 1016.1 1015.4 1.0
14/05:00pm 11.7 11.1 11.7 100 0.0 SW 6 17 3 9 1015.9 1015.2 0.8
14/04:30pm 12.0 11.5 12.0 100 0.0 SSW 6 15 3 8 1015.6 1014.9 0.6
14/04:00pm 12.2 11.7 12.2 100 0.0 SSW 6 15 3 8 1015.4 1014.7 0.4

Other Formats:

Comma delimited format used in spreadsheet applications
http://www.bom.gov.au/fwo/IDV60801/IDV60801.94872.axf

JavaScript Object Notation format (JSON) in row-major order
http://www.bom.gov.au/fwo/IDV60801/IDV60801.94872.json